createdAt,value
2022-12-24T00:02:21.146Z,19.76
2022-12-24T00:04:47.789Z,19.80
2022-12-24T00:07:14.467Z,19.84
2022-12-24T00:09:40.982Z,19.83
2022-12-24T00:12:07.739Z,20.01
2022-12-24T00:14:34.306Z,19.71
2022-12-24T00:17:01.010Z,19.72
2022-12-24T00:19:27.549Z,20.03
2022-12-24T00:21:54.191Z,19.56
2022-12-24T00:24:20.756Z,20.04
2022-12-24T00:26:47.305Z,19.03
2022-12-24T00:29:13.906Z,20.11
2022-12-24T00:31:40.429Z,19.84
2022-12-24T00:34:08.664Z,18.90
2022-12-24T00:36:35.231Z,19.66
2022-12-24T00:39:01.921Z,19.42
2022-12-24T00:41:31.040Z,19.93
2022-12-24T00:44:02.350Z,20.30
2022-12-24T00:46:30.205Z,18.98
2022-12-24T00:48:57.129Z,19.61
2022-12-24T00:51:23.913Z,19.07
2022-12-24T00:53:50.544Z,19.38
2022-12-24T00:56:17.587Z,19.37
2022-12-24T00:58:44.213Z,19.78
2022-12-24T01:01:10.858Z,18.76
2022-12-24T01:03:37.569Z,19.41
2022-12-24T01:06:09.167Z,19.64
2022-12-24T01:08:35.732Z,19.51
2022-12-24T01:11:03.011Z,19.96
2022-12-24T01:13:29.693Z,19.67
2022-12-24T01:15:56.278Z,19.70
2022-12-24T01:18:23.041Z,20.12
2022-12-24T01:20:59.619Z,19.88
2022-12-24T01:23:26.579Z,19.61
2022-12-24T01:25:53.121Z,19.92
2022-12-24T01:28:20.406Z,19.56
2022-12-24T01:30:47.375Z,19.74
2022-12-24T01:33:14.049Z,19.90
2022-12-24T01:35:43.669Z,19.70
2022-12-24T01:38:11.835Z,19.78
2022-12-24T01:40:58.061Z,19.82
2022-12-24T01:43:26.384Z,19.50
2022-12-24T01:46:07.147Z,19.04
2022-12-24T01:48:48.016Z,19.39
2022-12-24T01:51:14.484Z,20.29
2022-12-24T01:53:42.153Z,19.61
2022-12-24T01:56:08.738Z,20.04
2022-12-24T01:58:35.380Z,20.17
2022-12-24T02:01:02.062Z,20.03
2022-12-24T02:03:28.782Z,19.91
2022-12-24T02:05:56.342Z,20.12
2022-12-24T02:08:22.963Z,19.63
2022-12-24T02:10:49.634Z,19.55
2022-12-24T02:13:17.951Z,19.21
2022-12-24T02:15:50.507Z,20.31
2022-12-24T02:18:34.404Z,19.58
2022-12-24T02:21:00.824Z,20.30
2022-12-24T02:23:41.907Z,19.71
2022-12-24T02:26:24.702Z,19.87
2022-12-24T02:29:26.726Z,19.47
2022-12-24T02:32:10.122Z,19.61
2022-12-24T02:34:42.695Z,19.91
2022-12-24T02:37:18.039Z,20.13
2022-12-24T02:39:49.354Z,19.86
2022-12-24T02:42:17.490Z,19.84
2022-12-24T02:44:49.246Z,20.04
2022-12-24T02:47:15.829Z,19.90
2022-12-24T02:49:44.515Z,19.55
2022-12-24T02:52:40.176Z,20.30
2022-12-24T02:55:32.498Z,20.30
2022-12-24T02:58:05.031Z,19.76
2022-12-24T03:00:53.933Z,20.31
2022-12-24T03:03:38.351Z,20.30
2022-12-24T03:06:10.662Z,20.11
2022-12-24T03:08:47.944Z,19.75
2022-12-24T03:11:15.434Z,20.06
2022-12-24T03:13:42.668Z,17.85
2022-12-24T03:16:11.423Z,19.95
2022-12-24T03:18:39.028Z,19.31
2022-12-24T03:21:32.113Z,20.31
2022-12-24T03:23:58.718Z,19.39
2022-12-24T03:26:25.231Z,19.33
2022-12-24T03:28:51.802Z,19.55
2022-12-24T03:31:18.756Z,19.22
2022-12-24T03:33:45.670Z,19.99
2022-12-24T03:36:12.325Z,19.54
2022-12-24T03:38:38.947Z,19.61
2022-12-24T03:41:05.827Z,19.35
2022-12-24T03:43:32.519Z,19.67
2022-12-24T03:45:59.165Z,19.05
2022-12-24T03:48:32.346Z,19.50
2022-12-24T03:50:59.335Z,19.53
2022-12-24T03:53:25.876Z,20.31
2022-12-24T03:55:52.390Z,18.69
2022-12-24T03:58:18.938Z,19.01
2022-12-24T04:00:45.574Z,19.59
2022-12-24T04:03:12.288Z,19.54
2022-12-24T04:05:38.915Z,19.39
2022-12-24T04:08:05.598Z,18.84
2022-12-24T04:10:32.204Z,19.92
2022-12-24T04:12:58.852Z,19.93
2022-12-24T04:15:25.426Z,19.29
2022-12-24T04:17:52.000Z,20.22
2022-12-24T04:20:18.786Z,19.92
2022-12-24T04:22:45.344Z,19.96
2022-12-24T04:25:11.976Z,19.53
2022-12-24T04:27:38.613Z,20.08
2022-12-24T04:30:05.805Z,19.72
2022-12-24T04:32:32.480Z,18.99
2022-12-24T04:34:59.064Z,19.63
2022-12-24T04:37:25.578Z,19.31
2022-12-24T04:39:52.190Z,19.77
2022-12-24T04:42:20.070Z,19.80
2022-12-24T04:44:46.578Z,20.28
2022-12-24T04:47:13.206Z,19.85
2022-12-24T04:49:39.751Z,19.98
2022-12-24T04:52:06.349Z,19.24
2022-12-24T04:54:32.987Z,19.90
2022-12-24T04:56:59.575Z,20.29
2022-12-24T04:59:26.047Z,20.01
2022-12-24T05:01:52.725Z,20.02
2022-12-24T05:04:19.416Z,19.75
2022-12-24T05:06:45.981Z,19.73
2022-12-24T05:09:12.665Z,19.71
2022-12-24T05:11:39.309Z,19.61
2022-12-24T05:14:05.810Z,20.05
2022-12-24T05:16:32.306Z,19.88
2022-12-24T05:18:58.833Z,19.67
2022-12-24T05:21:25.313Z,19.08
2022-12-24T05:24:10.951Z,19.91
2022-12-24T05:26:42.881Z,19.53
2022-12-24T05:29:09.532Z,19.86
2022-12-24T05:31:36.478Z,19.31
2022-12-24T05:34:03.326Z,20.23
2022-12-24T05:36:29.935Z,19.89
2022-12-24T05:38:56.425Z,19.71
2022-12-24T05:41:23.042Z,19.87
2022-12-24T05:43:49.618Z,19.60
2022-12-24T05:46:18.738Z,19.92
2022-12-24T05:48:45.430Z,19.84
2022-12-24T05:51:12.919Z,19.64
2022-12-24T05:53:39.487Z,19.52
2022-12-24T05:56:10.772Z,19.72
2022-12-24T05:58:37.493Z,19.73
2022-12-24T06:01:04.344Z,19.76
2022-12-24T06:03:31.066Z,19.85
2022-12-24T06:06:08.032Z,19.78
2022-12-24T06:08:34.799Z,19.82
2022-12-24T06:11:03.593Z,19.76
2022-12-24T06:13:30.516Z,19.63
2022-12-24T06:15:58.024Z,19.19
2022-12-24T06:18:24.669Z,19.31
2022-12-24T06:20:54.579Z,19.47
2022-12-24T06:23:21.445Z,20.06
2022-12-24T06:25:48.049Z,19.41
2022-12-24T06:28:14.608Z,19.71
2022-12-24T06:30:41.487Z,19.30
2022-12-24T06:33:08.099Z,19.55
2022-12-24T06:35:34.612Z,19.57
2022-12-24T06:38:01.119Z,19.62
2022-12-24T06:40:27.986Z,19.14
2022-12-24T06:42:54.493Z,19.44
2022-12-24T06:45:21.024Z,20.09
2022-12-24T06:47:47.572Z,19.59
2022-12-24T06:50:14.078Z,19.78
2022-12-24T06:52:40.658Z,19.44
2022-12-24T06:55:07.780Z,19.35
2022-12-24T06:57:34.309Z,20.29
2022-12-24T07:00:00.821Z,19.56
2022-12-24T07:02:27.520Z,19.72
2022-12-24T07:04:54.124Z,19.33
2022-12-24T07:07:20.641Z,19.47
2022-12-24T07:09:47.220Z,19.85
2022-12-24T07:12:13.711Z,19.84
2022-12-24T07:14:40.230Z,20.05
2022-12-24T07:17:06.881Z,19.81
2022-12-24T07:19:34.321Z,19.77
2022-12-24T07:22:00.815Z,19.79
2022-12-24T07:24:27.378Z,20.15
2022-12-24T07:26:53.887Z,20.10
2022-12-24T07:29:20.608Z,19.82
2022-12-24T07:31:47.216Z,19.74
2022-12-24T07:34:13.788Z,19.49
2022-12-24T07:36:40.363Z,20.23
2022-12-24T07:39:06.846Z,19.50
2022-12-24T07:41:37.919Z,19.37
2022-12-24T07:44:11.752Z,18.31
2022-12-24T07:46:38.308Z,19.73
2022-12-24T07:49:04.835Z,19.98
2022-12-24T07:51:31.373Z,19.99
2022-12-24T07:53:57.917Z,19.43
2022-12-24T07:56:24.479Z,18.90
2022-12-24T07:58:51.536Z,19.70
2022-12-24T08:01:18.633Z,19.62
2022-12-24T08:03:45.520Z,19.79
2022-12-24T08:06:12.214Z,19.98
2022-12-24T08:08:38.812Z,19.60
2022-12-24T08:11:06.346Z,19.72
2022-12-24T08:13:32.858Z,18.12
2022-12-24T08:15:59.539Z,19.43
2022-12-24T08:18:26.075Z,19.75
2022-12-24T08:20:52.687Z,19.67
2022-12-24T08:23:19.199Z,19.50
2022-12-24T08:25:46.538Z,19.71
2022-12-24T08:28:17.860Z,19.68
2022-12-24T08:30:44.502Z,19.88
2022-12-24T08:33:11.151Z,19.54
2022-12-24T08:35:37.658Z,20.09
2022-12-24T08:38:04.222Z,19.47
2022-12-24T08:40:30.709Z,18.46
2022-12-24T08:42:57.319Z,19.61
2022-12-24T08:45:23.874Z,19.53
2022-12-24T08:47:50.409Z,19.86
2022-12-24T08:50:16.952Z,19.65
2022-12-24T08:52:43.591Z,19.85
2022-12-24T08:55:10.166Z,19.82
2022-12-24T08:57:37.305Z,19.64
2022-12-24T09:00:05.583Z,19.70
2022-12-24T09:02:32.232Z,19.66
2022-12-24T09:04:58.819Z,19.82
2022-12-24T09:07:25.409Z,19.83
2022-12-24T09:09:51.937Z,19.56
2022-12-24T09:12:18.458Z,19.45
2022-12-24T09:14:45.024Z,18.55
2022-12-24T09:17:11.549Z,18.81
2022-12-24T09:19:38.121Z,19.85
2022-12-24T09:22:04.723Z,19.13
2022-12-24T09:24:31.370Z,19.62
2022-12-24T09:26:58.333Z,20.03
2022-12-24T09:29:25.287Z,19.81
2022-12-24T09:31:51.921Z,19.31
2022-12-24T09:34:18.530Z,19.64
2022-12-24T09:36:46.232Z,19.20
2022-12-24T09:39:13.007Z,19.34
2022-12-24T09:41:45.445Z,20.26
2022-12-24T09:44:25.417Z,20.06
2022-12-24T09:46:52.052Z,20.26
2022-12-24T09:49:20.560Z,19.61
2022-12-24T09:51:53.155Z,18.89
2022-12-24T09:54:25.768Z,18.39
2022-12-24T09:56:52.314Z,19.87
2022-12-24T09:59:23.338Z,19.65
2022-12-24T10:01:51.747Z,19.68
2022-12-24T10:04:20.746Z,19.50
2022-12-24T10:07:09.570Z,20.26
2022-12-24T10:09:38.924Z,20.25
2022-12-24T10:12:23.741Z,20.26
2022-12-24T10:15:15.425Z,19.83
2022-12-24T10:18:00.113Z,20.26
2022-12-24T10:20:37.438Z,19.53
2022-12-24T10:23:13.036Z,20.29
2022-12-24T10:26:06.505Z,19.86
2022-12-24T10:28:58.889Z,20.08
2022-12-24T10:31:31.295Z,19.79
2022-12-24T10:34:02.251Z,18.98
2022-12-24T10:36:29.777Z,19.73
2022-12-24T10:38:56.403Z,19.93
2022-12-24T10:41:23.406Z,19.65
2022-12-24T10:43:49.977Z,20.11
2022-12-24T10:46:23.485Z,20.29
2022-12-24T10:49:01.757Z,19.34
2022-12-24T10:51:54.234Z,20.29
2022-12-24T10:54:26.975Z,19.46
2022-12-24T10:56:58.634Z,19.91
2022-12-24T10:59:28.129Z,20.28
2022-12-24T11:01:55.528Z,19.61
2022-12-24T11:04:25.160Z,19.26
2022-12-24T11:06:56.349Z,19.48
2022-12-24T11:09:27.216Z,19.05
2022-12-24T11:11:54.573Z,18.72
2022-12-24T11:14:21.321Z,19.43
2022-12-24T11:16:49.940Z,19.86
2022-12-24T11:19:18.508Z,20.05
2022-12-24T11:21:45.141Z,20.27
2022-12-24T11:24:23.794Z,20.28
2022-12-24T11:26:50.487Z,19.67
2022-12-24T11:29:24.743Z,20.25
2022-12-24T11:31:52.754Z,19.87
2022-12-24T11:34:26.411Z,20.28
2022-12-24T11:36:53.717Z,20.29
2022-12-24T11:39:29.244Z,18.57
2022-12-24T11:41:55.768Z,20.11
2022-12-24T11:44:26.703Z,20.26
2022-12-24T11:46:56.807Z,20.12
2022-12-24T11:49:30.234Z,20.28
2022-12-24T11:52:12.027Z,20.29
2022-12-24T11:55:18.361Z,20.18
2022-12-24T11:58:40.470Z,20.05
2022-12-24T12:01:16.283Z,20.28
2022-12-24T12:03:48.178Z,19.67
2022-12-24T12:06:24.087Z,20.26
2022-12-24T12:08:51.071Z,19.63
2022-12-24T12:11:17.672Z,19.83
2022-12-24T12:13:44.320Z,19.88
2022-12-24T12:16:28.910Z,20.26
2022-12-24T12:19:05.647Z,19.72
2022-12-24T12:21:41.461Z,20.19
2022-12-24T12:24:13.329Z,19.64
2022-12-24T12:26:39.823Z,20.09
2022-12-24T12:29:24.953Z,20.29
2022-12-24T12:31:55.398Z,19.07
2022-12-24T12:34:36.736Z,19.76
2022-12-24T12:37:20.257Z,18.58
2022-12-24T12:39:46.805Z,19.15
2022-12-24T12:42:19.435Z,20.29
2022-12-24T12:44:52.023Z,19.02
2022-12-24T12:47:52.376Z,20.30
2022-12-24T12:50:58.937Z,19.84
2022-12-24T12:53:35.668Z,18.91
2022-12-24T12:56:20.483Z,20.30
2022-12-24T12:59:04.813Z,18.91
2022-12-24T13:01:39.598Z,19.65
2022-12-24T13:04:11.076Z,20.30
2022-12-24T13:06:52.885Z,20.30
2022-12-24T13:09:53.065Z,20.31
2022-12-24T13:12:38.340Z,20.31
2022-12-24T13:15:14.160Z,20.31
2022-12-24T13:17:43.650Z,20.31
2022-12-24T13:20:29.837Z,20.31
2022-12-24T13:23:01.305Z,19.28
2022-12-24T13:25:51.008Z,19.49
2022-12-24T13:28:23.466Z,20.31
2022-12-24T13:30:50.875Z,18.73
2022-12-24T13:33:35.771Z,20.30
2022-12-24T13:36:03.760Z,20.30
2022-12-24T13:38:32.681Z,18.71
2022-12-24T13:41:38.702Z,20.31
2022-12-24T13:44:07.096Z,20.31
2022-12-24T13:46:58.615Z,20.31
2022-12-24T13:49:28.224Z,20.31
2022-12-24T13:52:22.608Z,20.31
2022-12-24T13:54:55.239Z,20.30
2022-12-24T13:57:40.157Z,18.69
2022-12-24T14:00:13.099Z,20.32
2022-12-24T14:02:55.449Z,19.30
2022-12-24T14:05:31.021Z,19.75
2022-12-24T14:07:57.726Z,18.88
2022-12-24T14:10:30.289Z,18.80
2022-12-24T14:12:56.835Z,19.78
2022-12-24T14:15:51.699Z,20.30
2022-12-24T14:18:23.820Z,19.44
2022-12-24T14:20:55.316Z,19.91
2022-12-24T14:23:45.317Z,20.26
2022-12-24T14:26:18.257Z,19.94
2022-12-24T14:29:16.480Z,20.29
2022-12-24T14:31:55.496Z,19.25
2022-12-24T14:34:22.789Z,19.13
2022-12-24T14:36:50.167Z,20.04
2022-12-24T14:39:30.738Z,20.28
2022-12-24T14:42:06.161Z,18.63
2022-12-24T14:45:06.914Z,20.07
2022-12-24T14:48:01.426Z,20.27
2022-12-24T14:50:40.908Z,20.28
2022-12-24T14:53:34.149Z,20.26
2022-12-24T14:56:08.972Z,19.89
2022-12-24T14:58:40.186Z,19.27
2022-12-24T15:01:24.445Z,20.27
2022-12-24T15:04:09.894Z,19.03
2022-12-24T15:06:53.346Z,19.44
2022-12-24T15:09:21.065Z,19.44
2022-12-24T15:11:48.938Z,19.47
2022-12-24T15:14:15.625Z,18.78
2022-12-24T15:16:42.306Z,19.30
2022-12-24T15:19:26.940Z,19.76
2022-12-24T15:21:54.059Z,18.59
2022-12-24T15:24:45.503Z,19.66
2022-12-24T15:27:17.414Z,19.15
2022-12-24T15:29:45.111Z,19.14
2022-12-24T15:32:16.275Z,19.78
2022-12-24T15:34:47.289Z,19.81
2022-12-24T15:37:21.743Z,19.36
2022-12-24T15:39:55.717Z,20.17
2022-12-24T15:42:22.748Z,19.28
2022-12-24T15:45:12.675Z,20.26
2022-12-24T15:47:52.540Z,20.26
2022-12-24T15:50:29.868Z,19.64
2022-12-24T15:53:20.197Z,18.61
2022-12-24T15:55:47.824Z,19.43
2022-12-24T15:58:25.698Z,19.04
2022-12-24T16:01:02.384Z,19.55
2022-12-24T16:03:29.130Z,18.75
2022-12-24T16:06:00.465Z,19.56
2022-12-24T16:08:29.667Z,20.05
2022-12-24T16:11:05.261Z,20.25
2022-12-24T16:13:33.484Z,19.32
2022-12-24T16:16:00.999Z,20.24
2022-12-24T16:18:38.813Z,18.96
2022-12-24T16:21:05.750Z,20.24
2022-12-24T16:23:53.287Z,20.23
2022-12-24T16:26:20.236Z,19.56
2022-12-24T16:28:46.833Z,19.61
2022-12-24T16:31:18.029Z,18.70
2022-12-24T16:33:45.346Z,18.73
2022-12-24T16:36:12.022Z,19.50
2022-12-24T16:38:56.939Z,20.25
2022-12-24T16:41:23.550Z,19.49
2022-12-24T16:43:50.208Z,19.18
2022-12-24T16:46:16.865Z,19.42
2022-12-24T16:48:46.469Z,19.93
2022-12-24T16:51:13.004Z,18.61
2022-12-24T16:53:39.625Z,19.00
2022-12-24T16:56:06.720Z,19.86
2022-12-24T16:58:33.616Z,19.20
2022-12-24T17:01:06.766Z,19.68
2022-12-24T17:03:33.712Z,18.08
2022-12-24T17:06:01.811Z,20.25
2022-12-24T17:08:28.495Z,19.49
2022-12-24T17:10:55.054Z,19.81
2022-12-24T17:13:21.611Z,19.84
2022-12-24T17:15:48.301Z,19.90
2022-12-24T17:18:15.120Z,19.10
2022-12-24T17:20:41.641Z,18.76
2022-12-24T17:23:08.299Z,19.09
2022-12-24T17:25:36.046Z,19.17
2022-12-24T17:28:02.700Z,18.89
2022-12-24T17:30:29.222Z,18.83
2022-12-24T17:32:55.891Z,19.41
2022-12-24T17:35:22.510Z,18.14
2022-12-24T17:37:49.140Z,19.64
2022-12-24T17:40:15.768Z,18.71
2022-12-24T17:42:43.633Z,19.73
2022-12-24T17:45:10.506Z,19.76
2022-12-24T17:47:37.028Z,19.66
2022-12-24T17:50:03.830Z,19.68
2022-12-24T17:52:30.359Z,19.37
2022-12-24T17:54:56.906Z,18.90
2022-12-24T17:57:23.553Z,18.58
2022-12-24T17:59:50.250Z,19.12
2022-12-24T18:02:16.939Z,19.15
2022-12-24T18:04:43.797Z,19.50
2022-12-24T18:07:10.293Z,19.15
2022-12-24T18:09:36.853Z,20.04
2022-12-24T18:12:03.800Z,19.92
2022-12-24T18:14:30.357Z,18.52
2022-12-24T18:16:57.091Z,18.86
2022-12-24T18:19:23.851Z,20.10
2022-12-24T18:21:50.420Z,18.95
2022-12-24T18:24:18.157Z,19.06
2022-12-24T18:26:45.881Z,19.26
2022-12-24T18:29:12.704Z,19.14
2022-12-24T18:31:39.315Z,19.65
2022-12-24T18:34:07.159Z,19.39
2022-12-24T18:36:34.238Z,18.60
2022-12-24T18:39:01.195Z,18.85
2022-12-24T18:41:31.953Z,19.67
2022-12-24T18:43:58.940Z,19.53
2022-12-24T18:46:27.161Z,18.63
2022-12-24T18:48:54.490Z,19.81
2022-12-24T18:51:24.918Z,20.05
2022-12-24T18:53:51.520Z,19.32
2022-12-24T18:56:20.463Z,19.39
2022-12-24T18:58:47.055Z,19.73
2022-12-24T19:01:19.048Z,19.61
2022-12-24T19:03:45.873Z,17.98
2022-12-24T19:06:12.406Z,19.70
2022-12-24T19:11:25.902Z,19.91
2022-12-24T19:13:53.197Z,19.28
2022-12-24T19:16:20.121Z,19.49
2022-12-24T19:18:46.781Z,19.61
2022-12-24T19:21:13.953Z,19.61
2022-12-24T19:23:40.766Z,18.57
2022-12-24T19:26:07.439Z,19.19
2022-12-24T19:28:34.233Z,20.02
2022-12-24T19:31:09.243Z,19.75
2022-12-24T19:33:46.135Z,19.09
2022-12-24T19:36:15.083Z,19.82
2022-12-24T19:38:43.321Z,18.15
2022-12-24T19:41:15.535Z,19.78
2022-12-24T19:43:43.589Z,18.72
2022-12-24T19:46:12.617Z,19.19
2022-12-24T19:48:39.711Z,19.23
2022-12-24T19:51:08.369Z,19.49
2022-12-24T19:53:35.464Z,19.94
2022-12-24T19:56:02.430Z,18.82
2022-12-24T19:58:29.192Z,18.68
2022-12-24T20:00:55.972Z,19.77
2022-12-24T20:03:22.793Z,19.85
2022-12-24T20:05:49.781Z,19.34
2022-12-24T20:08:16.693Z,19.16
2022-12-24T20:10:46.597Z,17.57
2022-12-24T20:15:53.807Z,19.42
2022-12-24T20:18:20.455Z,19.20
2022-12-24T20:20:47.019Z,17.03
2022-12-24T20:23:13.721Z,16.57
2022-12-24T20:25:40.469Z,16.43
2022-12-24T20:28:07.122Z,15.68
2022-12-24T20:30:36.985Z,18.90
2022-12-24T20:33:03.788Z,16.44
2022-12-24T20:35:30.460Z,13.78
2022-12-24T20:37:57.092Z,18.87
2022-12-24T20:40:23.730Z,15.22
2022-12-24T20:42:53.394Z,16.28
2022-12-24T20:45:21.685Z,16.73
2022-12-24T20:47:49.867Z,13.34
2022-12-24T20:50:25.344Z,18.58
2022-12-24T20:52:52.314Z,16.63
2022-12-24T20:55:25.493Z,12.97
2022-12-24T20:57:59.930Z,19.08
2022-12-24T21:00:29.741Z,16.56
2022-12-24T21:05:37.698Z,14.31
2022-12-24T21:08:07.096Z,16.61
2022-12-24T21:10:43.224Z,18.57
2022-12-24T21:13:16.075Z,16.61
2022-12-24T21:15:42.905Z,14.66
2022-12-24T21:18:31.166Z,18.54
2022-12-24T21:20:57.998Z,15.40
2022-12-24T21:23:24.767Z,16.44
2022-12-24T21:26:09.147Z,16.11
2022-12-24T21:28:38.400Z,14.60
2022-12-24T21:31:13.346Z,14.84
2022-12-24T21:33:49.261Z,15.96
2022-12-24T21:36:19.154Z,18.79
2022-12-24T21:38:45.917Z,16.40
2022-12-24T21:41:15.846Z,14.02
2022-12-24T21:43:43.070Z,18.12
2022-12-24T21:46:22.247Z,14.84
2022-12-24T21:49:17.109Z,16.48
2022-12-24T21:51:48.989Z,15.32
2022-12-24T21:54:27.527Z,18.45
2022-12-24T21:57:15.992Z,16.71
2022-12-24T21:59:45.445Z,16.42
2022-12-24T22:02:17.367Z,14.91
2022-12-24T22:04:44.473Z,14.96
2022-12-24T22:07:47.632Z,15.81
2022-12-24T22:13:23.533Z,16.46
2022-12-24T22:15:51.487Z,15.28
2022-12-24T22:18:25.989Z,13.15
2022-12-24T22:20:58.440Z,16.58
2022-12-24T22:23:31.132Z,16.55
2022-12-24T22:25:57.889Z,14.56
2022-12-24T22:28:27.752Z,16.54
2022-12-24T22:30:55.182Z,13.53
2022-12-24T22:33:25.529Z,16.31
2022-12-24T22:35:55.406Z,15.32
2022-12-24T22:38:22.142Z,16.23
2022-12-24T22:40:49.629Z,16.57
2022-12-24T22:43:21.979Z,16.32
2022-12-24T22:45:51.471Z,14.16
2022-12-24T22:48:18.752Z,16.25
2022-12-24T22:50:56.068Z,18.28
2022-12-24T22:53:23.125Z,14.89
2022-12-24T22:56:02.688Z,15.76
2022-12-24T22:58:33.470Z,16.56
2022-12-24T23:01:09.166Z,15.31
2022-12-24T23:03:36.027Z,16.02
2022-12-24T23:06:04.421Z,14.10
2022-12-24T23:08:32.326Z,14.27
2022-12-24T23:11:17.331Z,17.76
2022-12-24T23:14:08.266Z,13.67
2022-12-24T23:16:35.197Z,18.11
2022-12-24T23:19:05.778Z,15.59
2022-12-24T23:21:32.589Z,14.28
2022-12-24T23:24:00.272Z,15.52
2022-12-24T23:26:29.725Z,17.31
2022-12-24T23:28:56.669Z,13.88
2022-12-24T23:31:37.210Z,18.79
2022-12-24T23:34:04.200Z,15.00
2022-12-24T23:36:34.124Z,14.96
2022-12-24T23:39:10.200Z,14.84
2022-12-24T23:41:37.048Z,15.64
2022-12-24T23:44:04.133Z,16.49
2022-12-24T23:46:38.816Z,13.12
2022-12-24T23:49:06.032Z,16.51
2022-12-24T23:51:35.112Z,15.36
2022-12-24T23:54:04.810Z,14.05
2022-12-24T23:56:31.776Z,15.11
2022-12-24T23:58:58.581Z,18.30
